Terminal Aerodrome Forecast
Issued by NWS Wakefield, VA

Home | Current Version | Previous Version | Text Only | Print | Product List | Glossary On
Versions: 1 2 3 4 5 6 7 8 9 10 11 12 13 14 15 16 17
000
FTUS41 KAKQ 020500 RRA
TAFSBY
TAF
KSBY 020550Z 0206/0306 VRB03KT P6SM SCT040
      TEMPO 0206/0208 00000KT 4SM BR FEW004 SCT040
     FM020800 00000KT 2SM BR SCT025
     FM021300 36007KT P6SM BKN025
     FM021600 01008KT P6SM BKN040
     FM030400 03005KT 4SM BR FEW004 BKN025=

USA.gov is the U.S. government's official web portal to all federal, state and local government web resources and services.